sensor_id;sensor_type;location;lat;lon;timestamp;temperature;humidity
24618;DHT22;12762;51.730;5.356;2022-09-12T00:01:08;16.50;71.90
24618;DHT22;12762;51.730;5.356;2022-09-12T00:03:39;16.50;71.90
24618;DHT22;12762;51.730;5.356;2022-09-12T00:08:41;16.50;71.90
24618;DHT22;12762;51.730;5.356;2022-09-12T00:11:10;16.50;71.80
24618;DHT22;12762;51.730;5.356;2022-09-12T00:13:39;16.40;72.00
24618;DHT22;12762;51.730;5.356;2022-09-12T00:16:20;16.40;72.10
24618;DHT22;12762;51.730;5.356;2022-09-12T00:18:47;16.40;72.40
24618;DHT22;12762;51.730;5.356;2022-09-12T00:21:15;16.40;72.50
24618;DHT22;12762;51.730;5.356;2022-09-12T00:23:43;16.40;72.80
24618;DHT22;12762;51.730;5.356;2022-09-12T00:26:11;16.30;72.80
24618;DHT22;12762;51.730;5.356;2022-09-12T00:28:39;16.30;72.90
24618;DHT22;12762;51.730;5.356;2022-09-12T00:31:09;16.30;73.00
24618;DHT22;12762;51.730;5.356;2022-09-12T00:33:37;16.30;73.10
24618;DHT22;12762;51.730;5.356;2022-09-12T00:36:13;16.30;73.20
24618;DHT22;12762;51.730;5.356;2022-09-12T00:38:41;16.30;73.40
24618;DHT22;12762;51.730;5.356;2022-09-12T00:41:20;16.20;73.30
24618;DHT22;12762;51.730;5.356;2022-09-12T00:43:53;16.20;73.40
24618;DHT22;12762;51.730;5.356;2022-09-12T00:51:50;16.20;73.60
24618;DHT22;12762;51.730;5.356;2022-09-12T00:54:22;16.20;73.70
24618;DHT22;12762;51.730;5.356;2022-09-12T00:56:55;16.10;73.80
24618;DHT22;12762;51.730;5.356;2022-09-12T00:59:33;16.10;73.80
24618;DHT22;12762;51.730;5.356;2022-09-12T01:02:01;16.10;73.90
24618;DHT22;12762;51.730;5.356;2022-09-12T01:04:29;16.10;73.80
24618;DHT22;12762;51.730;5.356;2022-09-12T01:06:57;16.10;74.00
24618;DHT22;12762;51.730;5.356;2022-09-12T01:09:24;16.00;73.90
24618;DHT22;12762;51.730;5.356;2022-09-12T01:11:52;16.00;73.80
24618;DHT22;12762;51.730;5.356;2022-09-12T01:14:19;16.00;73.90
24618;DHT22;12762;51.730;5.356;2022-09-12T01:16:47;16.00;74.00
24618;DHT22;12762;51.730;5.356;2022-09-12T01:36:40;15.80;73.10
24618;DHT22;12762;51.730;5.356;2022-09-12T01:39:08;15.70;73.00
24618;DHT22;12762;51.730;5.356;2022-09-12T01:44:31;15.70;72.80
24618;DHT22;12762;51.730;5.356;2022-09-12T01:49:59;15.70;72.90
24618;DHT22;12762;51.730;5.356;2022-09-12T01:54:59;15.60;73.00
24618;DHT22;12762;51.730;5.356;2022-09-12T01:57:32;15.60;72.90
24618;DHT22;12762;51.730;5.356;2022-09-12T02:00:08;15.60;72.90
24618;DHT22;12762;51.730;5.356;2022-09-12T02:02:46;15.50;72.50
24618;DHT22;12762;51.730;5.356;2022-09-12T02:05:32;15.50;72.40
24618;DHT22;12762;51.730;5.356;2022-09-12T02:08:15;15.50;72.70
24618;DHT22;12762;51.730;5.356;2022-09-12T02:10:56;15.40;73.50
24618;DHT22;12762;51.730;5.356;2022-09-12T02:13:31;15.40;72.80
24618;DHT22;12762;51.730;5.356;2022-09-12T02:16:07;15.40;72.80
24618;DHT22;12762;51.730;5.356;2022-09-12T02:18:39;15.30;72.80
24618;DHT22;12762;51.730;5.356;2022-09-12T02:21:09;15.30;72.80
24618;DHT22;12762;51.730;5.356;2022-09-12T02:23:40;15.30;72.80
24618;DHT22;12762;51.730;5.356;2022-09-12T02:26:19;15.30;73.20
24618;DHT22;12762;51.730;5.356;2022-09-12T02:28:49;15.30;73.00
24618;DHT22;12762;51.730;5.356;2022-09-12T02:31:21;15.20;73.10
24618;DHT22;12762;51.730;5.356;2022-09-12T02:39:16;15.20;73.50
24618;DHT22;12762;51.730;5.356;2022-09-12T02:41:49;15.20;73.70
24618;DHT22;12762;51.730;5.356;2022-09-12T02:44:17;15.20;73.60
24618;DHT22;12762;51.730;5.356;2022-09-12T02:46:50;15.20;73.80
24618;DHT22;12762;51.730;5.356;2022-09-12T02:49:19;15.20;73.80
24618;DHT22;12762;51.730;5.356;2022-09-12T02:51:46;15.10;73.70
24618;DHT22;12762;51.730;5.356;2022-09-12T02:54:15;15.10;73.80
24618;DHT22;12762;51.730;5.356;2022-09-12T02:56:44;15.10;73.70
24618;DHT22;12762;51.730;5.356;2022-09-12T02:59:14;15.10;73.90
24618;DHT22;12762;51.730;5.356;2022-09-12T03:05:27;15.10;73.90
24618;DHT22;12762;51.730;5.356;2022-09-12T03:10:58;15.00;73.90
24618;DHT22;12762;51.730;5.356;2022-09-12T03:13:53;15.00;74.10
24618;DHT22;12762;51.730;5.356;2022-09-12T03:24:32;14.90;74.00
24618;DHT22;12762;51.730;5.356;2022-09-12T03:27:33;14.90;74.10
24618;DHT22;12762;51.730;5.356;2022-09-12T03:30:04;14.90;73.60
24618;DHT22;12762;51.730;5.356;2022-09-12T03:32:49;14.90;74.10
24618;DHT22;12762;51.730;5.356;2022-09-12T03:35:23;14.90;74.20
24618;DHT22;12762;51.730;5.356;2022-09-12T03:37:53;14.90;74.30
24618;DHT22;12762;51.730;5.356;2022-09-12T03:40:20;14.90;74.50
24618;DHT22;12762;51.730;5.356;2022-09-12T03:42:47;14.90;74.60
24618;DHT22;12762;51.730;5.356;2022-09-12T03:45:16;14.90;74.70
24618;DHT22;12762;51.730;5.356;2022-09-12T03:47:45;14.80;74.40
24618;DHT22;12762;51.730;5.356;2022-09-12T03:50:12;14.80;74.30
24618;DHT22;12762;51.730;5.356;2022-09-12T03:52:39;14.80;74.50
24618;DHT22;12762;51.730;5.356;2022-09-12T03:55:08;14.80;74.30
24618;DHT22;12762;51.730;5.356;2022-09-12T03:57:35;14.80;74.30
24618;DHT22;12762;51.730;5.356;2022-09-12T04:00:03;14.80;74.50
24618;DHT22;12762;51.730;5.356;2022-09-12T04:02:31;14.80;74.30
24618;DHT22;12762;51.730;5.356;2022-09-12T04:05:00;14.80;74.30
24618;DHT22;12762;51.730;5.356;2022-09-12T04:07:30;14.80;74.20
24618;DHT22;12762;51.730;5.356;2022-09-12T04:09:58;14.80;74.20
24618;DHT22;12762;51.730;5.356;2022-09-12T04:12:24;14.80;74.00
24618;DHT22;12762;51.730;5.356;2022-09-12T04:14:51;14.80;74.10
24618;DHT22;12762;51.730;5.356;2022-09-12T04:17:18;14.80;74.20
24618;DHT22;12762;51.730;5.356;2022-09-12T04:19:45;14.80;74.10
24618;DHT22;12762;51.730;5.356;2022-09-12T04:22:12;14.80;74.10
24618;DHT22;12762;51.730;5.356;2022-09-12T04:24:39;14.70;73.90
24618;DHT22;12762;51.730;5.356;2022-09-12T04:27:05;14.70;74.00
24618;DHT22;12762;51.730;5.356;2022-09-12T04:29:33;14.70;74.10
24618;DHT22;12762;51.730;5.356;2022-09-12T04:32:01;14.70;74.20
24618;DHT22;12762;51.730;5.356;2022-09-12T04:34:31;14.70;74.20
24618;DHT22;12762;51.730;5.356;2022-09-12T04:36:58;14.70;74.30
24618;DHT22;12762;51.730;5.356;2022-09-12T04:39:25;14.70;74.30
24618;DHT22;12762;51.730;5.356;2022-09-12T04:41:52;14.70;74.40
24618;DHT22;12762;51.730;5.356;2022-09-12T04:44:20;14.70;74.60
24618;DHT22;12762;51.730;5.356;2022-09-12T04:46:46;14.70;74.60
24618;DHT22;12762;51.730;5.356;2022-09-12T04:49:17;14.70;74.50
24618;DHT22;12762;51.730;5.356;2022-09-12T04:51:48;14.70;74.60
24618;DHT22;12762;51.730;5.356;2022-09-12T04:54:17;14.70;74.70
24618;DHT22;12762;51.730;5.356;2022-09-12T04:56:46;14.70;74.70
24618;DHT22;12762;51.730;5.356;2022-09-12T04:59:16;14.70;74.80
24618;DHT22;12762;51.730;5.356;2022-09-12T05:01:43;14.70;75.00
24618;DHT22;12762;51.730;5.356;2022-09-12T05:04:11;14.70;75.00
24618;DHT22;12762;51.730;5.356;2022-09-12T05:06:39;14.70;75.00
24618;DHT22;12762;51.730;5.356;2022-09-12T05:09:07;14.70;74.90
24618;DHT22;12762;51.730;5.356;2022-09-12T05:11:38;14.70;75.10
24618;DHT22;12762;51.730;5.356;2022-09-12T05:14:28;14.70;75.10
24618;DHT22;12762;51.730;5.356;2022-09-12T05:16:56;14.80;75.20
24618;DHT22;12762;51.730;5.356;2022-09-12T05:19:28;14.80;75.20
24618;DHT22;12762;51.730;5.356;2022-09-12T05:21:55;14.80;75.20
24618;DHT22;12762;51.730;5.356;2022-09-12T05:24:22;14.80;75.20
24618;DHT22;12762;51.730;5.356;2022-09-12T05:26:50;14.80;75.30
24618;DHT22;12762;51.730;5.356;2022-09-12T05:29:17;14.80;75.50
24618;DHT22;12762;51.730;5.356;2022-09-12T05:31:44;14.80;75.70
24618;DHT22;12762;51.730;5.356;2022-09-12T05:34:11;14.80;75.80
24618;DHT22;12762;51.730;5.356;2022-09-12T05:36:38;14.90;76.00
24618;DHT22;12762;51.730;5.356;2022-09-12T05:39:05;14.90;75.90
24618;DHT22;12762;51.730;5.356;2022-09-12T05:41:33;14.90;75.90
24618;DHT22;12762;51.730;5.356;2022-09-12T05:44:02;14.90;76.00
24618;DHT22;12762;51.730;5.356;2022-09-12T05:46:31;14.90;76.00
24618;DHT22;12762;51.730;5.356;2022-09-12T05:49:18;14.90;76.10
24618;DHT22;12762;51.730;5.356;2022-09-12T05:51:47;15.00;76.00
24618;DHT22;12762;51.730;5.356;2022-09-12T05:54:16;15.00;76.90
24618;DHT22;12762;51.730;5.356;2022-09-12T05:56:44;15.00;76.10
24618;DHT22;12762;51.730;5.356;2022-09-12T05:59:19;15.00;76.10
24618;DHT22;12762;51.730;5.356;2022-09-12T06:01:47;15.00;76.30
24618;DHT22;12762;51.730;5.356;2022-09-12T06:04:14;15.00;76.30
24618;DHT22;12762;51.730;5.356;2022-09-12T06:06:43;15.00;76.30
24618;DHT22;12762;51.730;5.356;2022-09-12T06:09:12;15.00;76.40
24618;DHT22;12762;51.730;5.356;2022-09-12T06:11:40;15.00;76.60
24618;DHT22;12762;51.730;5.356;2022-09-12T06:14:09;15.00;76.70
24618;DHT22;12762;51.730;5.356;2022-09-12T06:16:36;15.00;76.80
24618;DHT22;12762;51.730;5.356;2022-09-12T06:19:06;15.00;76.90
24618;DHT22;12762;51.730;5.356;2022-09-12T06:21:33;15.00;77.10
24618;DHT22;12762;51.730;5.356;2022-09-12T06:24:05;14.90;77.00
24618;DHT22;12762;51.730;5.356;2022-09-12T06:26:33;15.00;77.30
24618;DHT22;12762;51.730;5.356;2022-09-12T06:29:01;15.00;77.30
24618;DHT22;12762;51.730;5.356;2022-09-12T06:31:34;15.00;77.40
24618;DHT22;12762;51.730;5.356;2022-09-12T06:34:04;15.00;77.30
24618;DHT22;12762;51.730;5.356;2022-09-12T06:36:42;15.00;77.30
24618;DHT22;12762;51.730;5.356;2022-09-12T06:39:12;15.00;77.30
24618;DHT22;12762;51.730;5.356;2022-09-12T06:41:39;15.00;77.40
24618;DHT22;12762;51.730;5.356;2022-09-12T06:44:13;15.10;77.50
24618;DHT22;12762;51.730;5.356;2022-09-12T06:46:42;15.10;77.70
24618;DHT22;12762;51.730;5.356;2022-09-12T06:49:09;15.10;77.70
24618;DHT22;12762;51.730;5.356;2022-09-12T06:51:39;15.10;77.50
24618;DHT22;12762;51.730;5.356;2022-09-12T06:54:08;15.20;77.60
24618;DHT22;12762;51.730;5.356;2022-09-12T06:56:35;15.20;77.60
24618;DHT22;12762;51.730;5.356;2022-09-12T06:59:01;15.20;77.60
24618;DHT22;12762;51.730;5.356;2022-09-12T07:01:30;15.30;77.80
24618;DHT22;12762;51.730;5.356;2022-09-12T07:04:02;15.30;77.90
24618;DHT22;12762;51.730;5.356;2022-09-12T07:06:35;15.40;78.10
24618;DHT22;12762;51.730;5.356;2022-09-12T07:09:03;15.40;78.20
24618;DHT22;12762;51.730;5.356;2022-09-12T07:11:32;15.50;78.20
24618;DHT22;12762;51.730;5.356;2022-09-12T07:14:00;15.60;78.30
24618;DHT22;12762;51.730;5.356;2022-09-12T07:16:28;15.70;78.50
24618;DHT22;12762;51.730;5.356;2022-09-12T07:18:58;15.80;78.40
24618;DHT22;12762;51.730;5.356;2022-09-12T07:21:28;15.90;78.40
24618;DHT22;12762;51.730;5.356;2022-09-12T07:23:56;15.90;78.40
24618;DHT22;12762;51.730;5.356;2022-09-12T07:26:29;16.00;78.40
24618;DHT22;12762;51.730;5.356;2022-09-12T07:28:56;16.10;78.30
24618;DHT22;12762;51.730;5.356;2022-09-12T07:31:44;16.20;78.40
24618;DHT22;12762;51.730;5.356;2022-09-12T07:34:11;16.30;78.40
24618;DHT22;12762;51.730;5.356;2022-09-12T07:36:39;16.70;79.40
24618;DHT22;12762;51.730;5.356;2022-09-12T07:39:06;17.70;79.70
24618;DHT22;12762;51.730;5.356;2022-09-12T07:41:33;18.70;78.60
24618;DHT22;12762;51.730;5.356;2022-09-12T07:44:01;19.70;77.20
24618;DHT22;12762;51.730;5.356;2022-09-12T07:46:31;20.60;75.10
24618;DHT22;12762;51.730;5.356;2022-09-12T07:49:00;21.30;73.30
24618;DHT22;12762;51.730;5.356;2022-09-12T07:51:28;22.00;71.80
24618;DHT22;12762;51.730;5.356;2022-09-12T07:53:56;22.60;70.40
24618;DHT22;12762;51.730;5.356;2022-09-12T07:56:24;23.10;68.90
24618;DHT22;12762;51.730;5.356;2022-09-12T07:58:56;23.50;67.80
24618;DHT22;12762;51.730;5.356;2022-09-12T08:01:24;24.00;66.70
24618;DHT22;12762;51.730;5.356;2022-09-12T08:03:58;24.30;65.60
24618;DHT22;12762;51.730;5.356;2022-09-12T08:06:27;24.60;64.60
24618;DHT22;12762;51.730;5.356;2022-09-12T08:08:59;24.60;63.40
24618;DHT22;12762;51.730;5.356;2022-09-12T08:11:27;24.40;63.50
24618;DHT22;12762;51.730;5.356;2022-09-12T08:13:55;24.20;63.60
24618;DHT22;12762;51.730;5.356;2022-09-12T08:16:25;24.10;63.50
24618;DHT22;12762;51.730;5.356;2022-09-12T08:18:53;23.80;64.60
24618;DHT22;12762;51.730;5.356;2022-09-12T08:21:25;23.60;64.30
24618;DHT22;12762;51.730;5.356;2022-09-12T08:23:58;23.40;64.50
24618;DHT22;12762;51.730;5.356;2022-09-12T08:26:26;23.20;65.00
24618;DHT22;12762;51.730;5.356;2022-09-12T08:28:53;23.20;65.30
24618;DHT22;12762;51.730;5.356;2022-09-12T08:31:22;23.10;65.80
24618;DHT22;12762;51.730;5.356;2022-09-12T08:33:49;23.10;66.20
24618;DHT22;12762;51.730;5.356;2022-09-12T08:36:21;23.00;66.10
24618;DHT22;12762;51.730;5.356;2022-09-12T08:38:55;23.10;66.60
24618;DHT22;12762;51.730;5.356;2022-09-12T08:47:09;23.30;66.70
24618;DHT22;12762;51.730;5.356;2022-09-12T08:52:33;23.40;66.40
24618;DHT22;12762;51.730;5.356;2022-09-12T08:55:02;23.50;66.30
24618;DHT22;12762;51.730;5.356;2022-09-12T08:57:32;23.70;65.90
24618;DHT22;12762;51.730;5.356;2022-09-12T09:00:02;23.80;65.60
24618;DHT22;12762;51.730;5.356;2022-09-12T09:02:40;24.00;65.40
24618;DHT22;12762;51.730;5.356;2022-09-12T09:08:22;24.10;65.10
24618;DHT22;12762;51.730;5.356;2022-09-12T09:14:21;24.10;64.80
24618;DHT22;12762;51.730;5.356;2022-09-12T09:17:40;24.20;65.10
24618;DHT22;12762;51.730;5.356;2022-09-12T09:25:37;24.50;64.20
24618;DHT22;12762;51.730;5.356;2022-09-12T09:28:11;24.50;64.40
24618;DHT22;12762;51.730;5.356;2022-09-12T09:30:41;24.60;63.80
24618;DHT22;12762;51.730;5.356;2022-09-12T09:33:17;24.70;64.10
24618;DHT22;12762;51.730;5.356;2022-09-12T09:35:47;24.90;63.90
24618;DHT22;12762;51.730;5.356;2022-09-12T09:38:44;25.00;63.60
24618;DHT22;12762;51.730;5.356;2022-09-12T09:43:47;25.00;63.20
24618;DHT22;12762;51.730;5.356;2022-09-12T09:46:14;25.00;63.40
24618;DHT22;12762;51.730;5.356;2022-09-12T09:48:47;25.20;63.30
24618;DHT22;12762;51.730;5.356;2022-09-12T09:51:35;25.40;62.30
24618;DHT22;12762;51.730;5.356;2022-09-12T09:54:19;25.30;62.50
24618;DHT22;12762;51.730;5.356;2022-09-12T09:56:49;25.40;62.60
24618;DHT22;12762;51.730;5.356;2022-09-12T09:59:31;25.50;64.20
24618;DHT22;12762;51.730;5.356;2022-09-12T10:02:02;25.60;62.00
24618;DHT22;12762;51.730;5.356;2022-09-12T10:04:38;25.70;61.80
24618;DHT22;12762;51.730;5.356;2022-09-12T10:07:17;25.70;61.20
24618;DHT22;12762;51.730;5.356;2022-09-12T10:10:12;25.70;61.20
24618;DHT22;12762;51.730;5.356;2022-09-12T10:12:40;25.80;61.40
24618;DHT22;12762;51.730;5.356;2022-09-12T10:15:25;25.80;61.20
24618;DHT22;12762;51.730;5.356;2022-09-12T10:17:53;25.90;60.70
24618;DHT22;12762;51.730;5.356;2022-09-12T10:25:46;26.20;60.60
24618;DHT22;12762;51.730;5.356;2022-09-12T10:28:23;26.30;59.90
24618;DHT22;12762;51.730;5.356;2022-09-12T10:30:54;26.40;59.40
24618;DHT22;12762;51.730;5.356;2022-09-12T10:33:23;26.40;58.80
24618;DHT22;12762;51.730;5.356;2022-09-12T10:35:52;26.40;58.40
24618;DHT22;12762;51.730;5.356;2022-09-12T10:38:23;26.30;58.20
24618;DHT22;12762;51.730;5.356;2022-09-12T10:41:03;26.30;58.50
24618;DHT22;12762;51.730;5.356;2022-09-12T10:43:34;26.30;58.60
24618;DHT22;12762;51.730;5.356;2022-09-12T10:49:23;26.60;58.80
24618;DHT22;12762;51.730;5.356;2022-09-12T10:51:52;26.70;58.20
24618;DHT22;12762;51.730;5.356;2022-09-12T10:54:25;26.80;58.60
24618;DHT22;12762;51.730;5.356;2022-09-12T10:57:20;26.90;57.90
24618;DHT22;12762;51.730;5.356;2022-09-12T11:02:39;27.10;57.40
24618;DHT22;12762;51.730;5.356;2022-09-12T11:08:18;27.40;56.60
24618;DHT22;12762;51.730;5.356;2022-09-12T11:16:24;27.60;56.50
24618;DHT22;12762;51.730;5.356;2022-09-12T11:19:23;27.70;56.20
24618;DHT22;12762;51.730;5.356;2022-09-12T11:22:09;27.70;55.50
24618;DHT22;12762;51.730;5.356;2022-09-12T11:25:01;27.60;55.10
24618;DHT22;12762;51.730;5.356;2022-09-12T11:30:13;27.90;55.60
24618;DHT22;12762;51.730;5.356;2022-09-12T11:33:25;28.10;55.60
24618;DHT22;12762;51.730;5.356;2022-09-12T11:35:56;28.20;55.30
24618;DHT22;12762;51.730;5.356;2022-09-12T11:41:33;27.90;52.80
24618;DHT22;12762;51.730;5.356;2022-09-12T11:44:34;27.80;53.90
24618;DHT22;12762;51.730;5.356;2022-09-12T11:47:00;27.80;53.80
24618;DHT22;12762;51.730;5.356;2022-09-12T11:49:46;27.80;53.60
24618;DHT22;12762;51.730;5.356;2022-09-12T11:52:24;27.80;53.00
24618;DHT22;12762;51.730;5.356;2022-09-12T11:55:09;27.80;54.20
24618;DHT22;12762;51.730;5.356;2022-09-12T11:57:52;27.90;53.60
24618;DHT22;12762;51.730;5.356;2022-09-12T12:06:00;28.20;53.90
24618;DHT22;12762;51.730;5.356;2022-09-12T12:08:36;28.40;53.10
24618;DHT22;12762;51.730;5.356;2022-09-12T12:11:04;28.70;52.90
24618;DHT22;12762;51.730;5.356;2022-09-12T12:13:48;28.70;51.40
24618;DHT22;12762;51.730;5.356;2022-09-12T12:16:31;28.60;52.50
24618;DHT22;12762;51.730;5.356;2022-09-12T12:19:00;28.70;52.10
24618;DHT22;12762;51.730;5.356;2022-09-12T12:21:35;28.70;51.60
24618;DHT22;12762;51.730;5.356;2022-09-12T12:29:58;28.60;51.30
24618;DHT22;12762;51.730;5.356;2022-09-12T12:39:58;28.30;51.70
24618;DHT22;12762;51.730;5.356;2022-09-12T12:47:52;28.60;51.60
24618;DHT22;12762;51.730;5.356;2022-09-12T12:50:23;28.70;50.80
24618;DHT22;12762;51.730;5.356;2022-09-12T12:53:04;28.80;49.90
24618;DHT22;12762;51.730;5.356;2022-09-12T12:55:47;28.60;49.40
24618;DHT22;12762;51.730;5.356;2022-09-12T12:58:32;28.60;50.20
24618;DHT22;12762;51.730;5.356;2022-09-12T13:09:22;29.10;49.50
24618;DHT22;12762;51.730;5.356;2022-09-12T13:14:49;29.20;50.10
24618;DHT22;12762;51.730;5.356;2022-09-12T13:17:40;29.20;49.90
24618;DHT22;12762;51.730;5.356;2022-09-12T13:20:30;29.30;49.20
24618;DHT22;12762;51.730;5.356;2022-09-12T13:23:02;29.30;48.80
24618;DHT22;12762;51.730;5.356;2022-09-12T13:25:34;29.30;48.20
24618;DHT22;12762;51.730;5.356;2022-09-12T13:33:47;29.30;47.80
24618;DHT22;12762;51.730;5.356;2022-09-12T13:39:28;29.00;46.90
24618;DHT22;12762;51.730;5.356;2022-09-12T13:42:24;28.90;47.10
24618;DHT22;12762;51.730;5.356;2022-09-12T13:45:10;28.80;48.80
24618;DHT22;12762;51.730;5.356;2022-09-12T13:50:06;28.90;47.80
24618;DHT22;12762;51.730;5.356;2022-09-12T13:52:35;28.90;47.60
24618;DHT22;12762;51.730;5.356;2022-09-12T13:55:17;28.90;47.70
24618;DHT22;12762;51.730;5.356;2022-09-12T13:57:56;28.90;47.20
24618;DHT22;12762;51.730;5.356;2022-09-12T14:00:23;28.90;46.70
24618;DHT22;12762;51.730;5.356;2022-09-12T14:02:50;28.90;47.30
24618;DHT22;12762;51.730;5.356;2022-09-12T14:05:41;29.10;46.50
24618;DHT22;12762;51.730;5.356;2022-09-12T14:08:12;29.00;46.50
24618;DHT22;12762;51.730;5.356;2022-09-12T14:10:44;28.90;46.40
24618;DHT22;12762;51.730;5.356;2022-09-12T14:15:50;28.80;46.20
24618;DHT22;12762;51.730;5.356;2022-09-12T14:18:31;28.80;45.90
24618;DHT22;12762;51.730;5.356;2022-09-12T14:21:52;28.80;46.30
24618;DHT22;12762;51.730;5.356;2022-09-12T14:23:56;28.80;46.00
24618;DHT22;12762;51.730;5.356;2022-09-12T14:26:23;28.70;45.80
24618;DHT22;12762;51.730;5.356;2022-09-12T14:28:52;28.50;45.70
24618;DHT22;12762;51.730;5.356;2022-09-12T14:33:52;28.40;45.40
24618;DHT22;12762;51.730;5.356;2022-09-12T14:38:49;28.40;45.50
24618;DHT22;12762;51.730;5.356;2022-09-12T14:41:37;28.40;45.30
24618;DHT22;12762;51.730;5.356;2022-09-12T14:44:08;28.30;45.60
24618;DHT22;12762;51.730;5.356;2022-09-12T14:46:40;28.20;45.40
24618;DHT22;12762;51.730;5.356;2022-09-12T14:49:30;28.20;45.80
24618;DHT22;12762;51.730;5.356;2022-09-12T14:51:59;28.10;45.80
24618;DHT22;12762;51.730;5.356;2022-09-12T14:57:36;28.00;45.90
24618;DHT22;12762;51.730;5.356;2022-09-12T15:00:15;27.90;46.20
24618;DHT22;12762;51.730;5.356;2022-09-12T15:02:43;27.90;46.40
24618;DHT22;12762;51.730;5.356;2022-09-12T15:07:50;27.90;46.00
24618;DHT22;12762;51.730;5.356;2022-09-12T15:10:38;27.90;45.90
24618;DHT22;12762;51.730;5.356;2022-09-12T15:15:37;27.90;46.10
24618;DHT22;12762;51.730;5.356;2022-09-12T15:18:04;27.90;45.90
24618;DHT22;12762;51.730;5.356;2022-09-12T15:20:34;27.80;46.20
24618;DHT22;12762;51.730;5.356;2022-09-12T15:23:02;27.80;46.30
24618;DHT22;12762;51.730;5.356;2022-09-12T15:25:29;27.80;46.30
24618;DHT22;12762;51.730;5.356;2022-09-12T15:27:58;27.80;46.30
24618;DHT22;12762;51.730;5.356;2022-09-12T15:30:26;27.80;46.50
24618;DHT22;12762;51.730;5.356;2022-09-12T15:32:53;27.80;46.10
24618;DHT22;12762;51.730;5.356;2022-09-12T15:35:31;27.70;46.00
24618;DHT22;12762;51.730;5.356;2022-09-12T15:37:58;27.70;45.80
24618;DHT22;12762;51.730;5.356;2022-09-12T15:40:25;27.80;46.40
24618;DHT22;12762;51.730;5.356;2022-09-12T15:42:52;27.80;46.10
24618;DHT22;12762;51.730;5.356;2022-09-12T15:45:22;27.90;46.00
24618;DHT22;12762;51.730;5.356;2022-09-12T15:47:51;27.80;46.50
24618;DHT22;12762;51.730;5.356;2022-09-12T15:50:18;27.70;45.90
24618;DHT22;12762;51.730;5.356;2022-09-12T15:52:45;27.60;46.20
24618;DHT22;12762;51.730;5.356;2022-09-12T15:55:31;27.60;46.50
24618;DHT22;12762;51.730;5.356;2022-09-12T15:57:58;27.60;46.50
24618;DHT22;12762;51.730;5.356;2022-09-12T16:00:32;27.60;46.40
24618;DHT22;12762;51.730;5.356;2022-09-12T16:02:59;27.70;46.50
24618;DHT22;12762;51.730;5.356;2022-09-12T16:05:26;27.70;46.60
24618;DHT22;12762;51.730;5.356;2022-09-12T16:07:54;27.70;46.50
24618;DHT22;12762;51.730;5.356;2022-09-12T16:10:26;27.70;46.60
24618;DHT22;12762;51.730;5.356;2022-09-12T16:12:54;27.70;46.60
24618;DHT22;12762;51.730;5.356;2022-09-12T16:15:24;27.70;46.40
24618;DHT22;12762;51.730;5.356;2022-09-12T16:17:52;27.60;46.30
24618;DHT22;12762;51.730;5.356;2022-09-12T16:20:19;27.50;46.20
24618;DHT22;12762;51.730;5.356;2022-09-12T16:22:46;27.50;46.20
24618;DHT22;12762;51.730;5.356;2022-09-12T16:25:13;27.40;46.20
24618;DHT22;12762;51.730;5.356;2022-09-12T16:27:40;27.30;45.90
24618;DHT22;12762;51.730;5.356;2022-09-12T16:30:08;27.20;46.20
24618;DHT22;12762;51.730;5.356;2022-09-12T16:32:35;27.10;46.30
24618;DHT22;12762;51.730;5.356;2022-09-12T16:35:05;27.00;46.00
24618;DHT22;12762;51.730;5.356;2022-09-12T16:37:35;26.80;46.10
24618;DHT22;12762;51.730;5.356;2022-09-12T16:40:05;26.60;46.20
24618;DHT22;12762;51.730;5.356;2022-09-12T16:42:32;26.50;46.80
24618;DHT22;12762;51.730;5.356;2022-09-12T16:44:59;26.40;47.10
24618;DHT22;12762;51.730;5.356;2022-09-12T16:47:26;26.30;47.40
24618;DHT22;12762;51.730;5.356;2022-09-12T16:49:53;26.20;47.40
24618;DHT22;12762;51.730;5.356;2022-09-12T16:52:20;26.10;47.70
24618;DHT22;12762;51.730;5.356;2022-09-12T16:54:48;26.00;47.90
24618;DHT22;12762;51.730;5.356;2022-09-12T16:57:15;26.00;48.00
24618;DHT22;12762;51.730;5.356;2022-09-12T16:59:42;25.90;48.00
24618;DHT22;12762;51.730;5.356;2022-09-12T17:02:14;25.80;48.00
24618;DHT22;12762;51.730;5.356;2022-09-12T17:04:41;25.80;48.10
24618;DHT22;12762;51.730;5.356;2022-09-12T17:07:08;25.70;48.10
24618;DHT22;12762;51.730;5.356;2022-09-12T17:09:35;25.60;48.30
24618;DHT22;12762;51.730;5.356;2022-09-12T17:12:03;25.60;48.50
24618;DHT22;12762;51.730;5.356;2022-09-12T17:14:29;25.50;48.50
24618;DHT22;12762;51.730;5.356;2022-09-12T17:16:56;25.50;48.60
24618;DHT22;12762;51.730;5.356;2022-09-12T17:19:25;25.40;48.70
24618;DHT22;12762;51.730;5.356;2022-09-12T17:21:53;25.30;48.80
24618;DHT22;12762;51.730;5.356;2022-09-12T17:24:21;25.30;49.10
24618;DHT22;12762;51.730;5.356;2022-09-12T17:26:49;25.20;49.30
24618;DHT22;12762;51.730;5.356;2022-09-12T17:29:22;25.30;49.20
24618;DHT22;12762;51.730;5.356;2022-09-12T17:31:49;25.20;49.20
24618;DHT22;12762;51.730;5.356;2022-09-12T17:34:20;25.10;49.20
24618;DHT22;12762;51.730;5.356;2022-09-12T17:36:47;25.10;49.50
24618;DHT22;12762;51.730;5.356;2022-09-12T17:39:14;25.00;49.50
24618;DHT22;12762;51.730;5.356;2022-09-12T17:41:41;25.00;49.70
24618;DHT22;12762;51.730;5.356;2022-09-12T17:44:11;25.00;49.80
24618;DHT22;12762;51.730;5.356;2022-09-12T17:46:38;25.00;49.90
24618;DHT22;12762;51.730;5.356;2022-09-12T17:49:09;25.00;50.10
24618;DHT22;12762;51.730;5.356;2022-09-12T17:51:37;24.90;50.30
24618;DHT22;12762;51.730;5.356;2022-09-12T17:54:06;24.90;50.40
24618;DHT22;12762;51.730;5.356;2022-09-12T17:56:35;24.80;50.40
24618;DHT22;12762;51.730;5.356;2022-09-12T17:59:03;24.80;50.50
24618;DHT22;12762;51.730;5.356;2022-09-12T18:01:31;24.80;50.60
24618;DHT22;12762;51.730;5.356;2022-09-12T18:04:16;24.70;50.70
24618;DHT22;12762;51.730;5.356;2022-09-12T18:06:43;24.50;50.70
24618;DHT22;12762;51.730;5.356;2022-09-12T18:09:16;24.50;50.90
24618;DHT22;12762;51.730;5.356;2022-09-12T18:11:44;24.50;51.10
24618;DHT22;12762;51.730;5.356;2022-09-12T18:14:11;24.50;51.20
24618;DHT22;12762;51.730;5.356;2022-09-12T18:16:40;24.40;52.00
24618;DHT22;12762;51.730;5.356;2022-09-12T18:19:08;24.30;51.50
24618;DHT22;12762;51.730;5.356;2022-09-12T18:21:35;24.30;51.80
24618;DHT22;12762;51.730;5.356;2022-09-12T18:24:04;24.20;52.00
24618;DHT22;12762;51.730;5.356;2022-09-12T18:26:31;24.10;52.10
24618;DHT22;12762;51.730;5.356;2022-09-12T18:29:01;24.10;52.30
24618;DHT22;12762;51.730;5.356;2022-09-12T18:31:29;24.00;52.70
24618;DHT22;12762;51.730;5.356;2022-09-12T18:33:57;23.90;52.80
24618;DHT22;12762;51.730;5.356;2022-09-12T18:36:26;23.80;52.80
24618;DHT22;12762;51.730;5.356;2022-09-12T18:38:55;23.80;53.20
24618;DHT22;12762;51.730;5.356;2022-09-12T18:41:23;23.80;53.40
24618;DHT22;12762;51.730;5.356;2022-09-12T18:43:59;23.70;53.50